Time;durP1;ratioP1;P1;durP2;ratioP2;P2;SDS_P1;SDS_P2;PMS_P1;PMS_P2;Temp;Humidity;BMP_temperature;BMP_pressure;BME280_temperature;BME280_humidity;BME280_pressure;Samples;Min_cycle;Max_cycle;Signal;HPM_P1;HPM_P2
2022/03/20 00:00:37;;;;;;;56.35;31.95;;;8.60;99.90;;;;;;5055660;28;20021;-71
2022/03/20 00:03:06;;;;;;;52.42;30.15;;;8.50;99.90;;;;;;5055874;28;20036;-70
2022/03/20 00:05:38;;;;;;;48.88;28.73;;;8.40;99.90;;;;;;5055570;28;20104;-71
2022/03/20 00:08:12;;;;;;;56.13;33.28;;;8.40;99.90;;;;;;5055726;28;20052;-71
2022/03/20 00:10:42;;;;;;;56.72;32.88;;;8.40;99.90;;;;;;5056108;28;20027;-70
2022/03/20 00:13:09;;;;;;;62.47;35.75;;;8.30;99.90;;;;;;5055484;28;20020;-70
2022/03/20 00:15:40;;;;;;;56.70;34.42;;;8.30;99.90;;;;;;5055357;28;20500;-71
2022/03/20 00:18:06;;;;;;;62.47;35.92;;;8.30;99.90;;;;;;5055342;28;20025;-70
2022/03/20 00:20:43;;;;;;;58.80;34.95;;;8.30;99.90;;;;;;5055322;28;20055;-70
2022/03/20 00:23:10;;;;;;;55.60;35.42;;;8.40;99.90;;;;;;5055581;28;20025;-70
2022/03/20 00:25:46;;;;;;;56.95;33.47;;;8.40;99.90;;;;;;5055771;28;20070;-70
2022/03/20 00:28:15;;;;;;;57.97;33.83;;;8.50;99.90;;;;;;5055460;28;20025;-70
2022/03/20 00:30:41;;;;;;;57.45;35.45;;;8.50;99.90;;;;;;5055116;28;20362;-71
2022/03/20 00:33:07;;;;;;;55.67;33.47;;;8.50;99.90;;;;;;5055071;28;20025;-71
2022/03/20 00:35:33;;;;;;;57.15;32.50;;;8.50;99.90;;;;;;5055243;28;20048;-70
2022/03/20 00:37:59;;;;;;;59.35;34.42;;;8.50;99.90;;;;;;5054946;28;20147;-70
2022/03/20 00:40:25;;;;;;;54.17;33.30;;;8.50;99.90;;;;;;5054890;28;20489;-71
2022/03/20 00:42:52;;;;;;;64.13;36.28;;;8.40;99.90;;;;;;5054898;28;20104;-71
2022/03/20 00:45:18;;;;;;;58.88;34.30;;;8.40;99.90;;;;;;5054856;28;20067;-71
2022/03/20 00:47:43;;;;;;;58.38;35.30;;;8.40;99.90;;;;;;5054687;28;20427;-71
2022/03/20 00:50:09;;;;;;;64.68;36.00;;;8.40;99.90;;;;;;5055019;28;20028;-71
2022/03/20 00:52:35;;;;;;;58.63;35.00;;;8.40;99.90;;;;;;5054925;28;20013;-71
2022/03/20 00:55:02;;;;;;;57.97;33.08;;;8.40;99.90;;;;;;5054566;28;20100;-71
2022/03/20 00:57:27;;;;;;;57.40;34.17;;;8.40;99.90;;;;;;5054550;28;20503;-70
2022/03/20 00:59:53;;;;;;;58.45;35.70;;;8.40;99.90;;;;;;5054795;28;20061;-71
2022/03/20 01:02:19;;;;;;;61.95;37.83;;;8.50;99.90;;;;;;5054223;28;20358;-70
2022/03/20 01:04:45;;;;;;;56.88;33.53;;;8.40;99.90;;;;;;5054204;28;20025;-70
2022/03/20 01:07:10;;;;;;;61.28;33.53;;;8.40;99.90;;;;;;5054632;28;20025;-70
2022/03/20 01:09:37;;;;;;;57.47;34.95;;;8.40;99.90;;;;;;5054881;28;20146;-70
2022/03/20 01:12:03;;;;;;;53.78;32.17;;;8.30;99.90;;;;;;5054285;28;20421;-70
2022/03/20 01:14:30;;;;;;;61.08;34.42;;;8.30;99.90;;;;;;5054224;28;20028;-70
2022/03/20 01:16:57;;;;;;;55.50;33.72;;;8.30;99.90;;;;;;5054182;28;20021;-71
2022/03/20 01:19:24;;;;;;;56.20;33.85;;;8.30;99.90;;;;;;5054391;28;20424;-71
2022/03/20 01:21:51;;;;;;;60.13;33.63;;;8.30;99.90;;;;;;5054109;28;20025;-71
2022/03/20 01:24:17;;;;;;;55.17;32.03;;;8.30;99.90;;;;;;5054592;28;20029;-70
2022/03/20 01:26:43;;;;;;;63.28;35.17;;;8.20;99.90;;;;;;5036038;28;20036;-70
2022/03/20 01:29:08;;;;;;;63.35;36.53;;;8.20;99.90;;;;;;5036109;28;20390;-71
2022/03/20 01:31:38;;;;;;;61.83;37.90;;;8.20;99.90;;;;;;5054147;28;20072;-70
2022/03/20 01:34:04;;;;;;;59.90;35.47;;;8.20;99.90;;;;;;5054107;28;20025;-71
2022/03/20 01:36:31;;;;;;;58.42;35.55;;;8.10;99.90;;;;;;5053826;28;20029;-70
2022/03/20 01:38:56;;;;;;;57.65;33.50;;;8.10;99.90;;;;;;5054302;28;20025;-70
2022/03/20 01:41:23;;;;;;;57.65;36.00;;;8.00;99.90;;;;;;5053775;28;20091;-70
2022/03/20 01:43:56;;;;;;;63.63;35.35;;;8.00;99.90;;;;;;5053726;28;20044;-70
2022/03/20 01:46:22;;;;;;;57.85;33.40;;;8.00;99.90;;;;;;5053667;28;20025;-71
2022/03/20 01:48:49;;;;;;;55.20;33.35;;;8.00;99.90;;;;;;5053942;28;20028;-70
2022/03/20 01:51:15;;;;;;;59.28;34.70;;;8.00;99.90;;;;;;5053576;28;20013;-70
2022/03/20 01:53:41;;;;;;;52.10;32.60;;;8.00;99.90;;;;;;5053817;28;20036;-71
2022/03/20 01:56:07;;;;;;;65.78;36.00;;;8.00;99.90;;;;;;5053358;28;20045;-70
2022/03/20 01:58:34;;;;;;;56.70;35.05;;;8.00;99.90;;;;;;5053694;28;20056;-70
2022/03/20 02:01:00;;;;;;;70.68;35.85;;;8.00;99.90;;;;;;5053443;28;20031;-70
2022/03/20 02:03:26;;;;;;;56.97;33.47;;;8.00;99.90;;;;;;5053621;28;20497;-70
2022/03/20 02:05:52;;;;;;;59.90;34.45;;;8.00;99.90;;;;;;5053200;28;20132;-71
2022/03/20 02:08:25;;;;;;;57.42;34.00;;;8.00;99.90;;;;;;5053111;28;20029;-70
2022/03/20 02:10:55;;;;;;;55.70;32.80;;;8.10;99.90;;;;;;5053902;28;20020;-70
2022/03/20 02:13:24;;;;;;;63.75;33.00;;;8.00;99.90;;;;;;5053868;28;20472;-71
2022/03/20 02:15:51;;;;;;;56.22;32.65;;;8.00;99.90;;;;;;5052846;28;20013;-70
2022/03/20 02:18:18;;;;;;;59.20;33.42;;;8.00;99.90;;;;;;5053194;28;20025;-70
2022/03/20 02:20:48;;;;;;;57.25;34.72;;;8.10;99.90;;;;;;5053206;28;20028;-70
2022/03/20 02:23:15;;;;;;;58.58;32.92;;;8.10;99.90;;;;;;5053174;28;20029;-70
2022/03/20 02:25:47;;;;;;;55.67;31.73;;;8.10;99.90;;;;;;5053667;28;20025;-71
2022/03/20 02:28:14;;;;;;;59.03;33.90;;;8.10;99.90;;;;;;5053547;28;20032;-70
2022/03/20 02:30:40;;;;;;;54.05;31.38;;;8.10;99.90;;;;;;5053117;28;20013;-70
2022/03/20 02:33:05;;;;;;;53.47;31.55;;;8.10;99.90;;;;;;5053604;28;20029;-70
2022/03/20 02:35:33;;;;;;;48.13;29.35;;;8.00;99.90;;;;;;5053054;28;20017;-71
2022/03/20 02:37:58;;;;;;;56.53;30.17;;;8.00;99.90;;;;;;5053291;28;20021;-70
2022/03/20 02:40:24;;;;;;;47.85;29.30;;;8.00;99.90;;;;;;5052983;28;20055;-70
2022/03/20 02:42:54;;;;;;;45.25;28.15;;;8.00;99.90;;;;;;5053004;28;20057;-70
2022/03/20 02:45:27;;;;;;;48.90;29.00;;;8.00;99.90;;;;;;5052946;28;20020;-70
2022/03/20 02:47:53;;;;;;;50.00;28.15;;;8.00;99.90;;;;;;5053203;28;20406;-70
2022/03/20 02:50:27;;;;;;;51.65;30.08;;;8.00;99.90;;;;;;5052925;28;20028;-70
2022/03/20 02:52:56;;;;;;;46.53;27.10;;;8.00;99.90;;;;;;5053152;28;20025;-70
2022/03/20 02:55:35;;;;;;;50.90;29.70;;;8.00;99.90;;;;;;5053171;28;20359;-70
2022/03/20 02:58:03;;;;;;;47.97;28.40;;;7.90;99.90;;;;;;5053160;28;20096;-71
2022/03/20 03:00:31;;;;;;;53.90;30.38;;;7.90;99.90;;;;;;5052938;28;20096;-70
2022/03/20 03:03:00;;;;;;;51.90;29.77;;;7.90;99.90;;;;;;5053335;28;20061;-70
2022/03/20 03:05:28;;;;;;;48.63;28.48;;;8.00;99.90;;;;;;5052566;28;20509;-70
2022/03/20 03:10:57;;;;;;;48.67;28.77;;;8.00;99.90;;;;;;5052760;28;20028;-71
2022/03/20 03:13:32;;;;;;;51.85;30.15;;;8.00;99.90;;;;;;5053265;28;20025;-70
2022/03/20 03:16:00;;;;;;;51.95;28.48;;;7.90;99.90;;;;;;5052947;28;20021;-70
2022/03/20 03:18:26;;;;;;;52.97;29.42;;;8.00;99.90;;;;;;5052616;28;20029;-70
2022/03/20 03:20:52;;;;;;;51.67;30.20;;;8.00;99.90;;;;;;5052596;28;20064;-70
2022/03/20 03:23:20;;;;;;;55.17;30.77;;;8.10;99.90;;;;;;5052643;28;20033;-70
2022/03/20 03:25:46;;;;;;;51.22;29.73;;;8.10;99.90;;;;;;5053148;28;20393;-70
2022/03/20 03:28:12;;;;;;;51.47;28.63;;;8.10;99.90;;;;;;5056190;28;20099;-70
2022/03/20 03:30:40;;;;;;;53.72;30.58;;;8.10;99.90;;;;;;5056204;28;20547;-71
2022/03/20 03:33:06;;;;;;;49.03;29.88;;;8.10;99.90;;;;;;5056169;28;20028;-71
2022/03/20 03:35:51;;;;;;;49.47;30.23;;;8.10;99.90;;;;;;5056124;28;20017;-70
2022/03/20 03:38:19;;;;;;;52.95;30.67;;;8.10;99.90;;;;;;5056655;28;20021;-71
2022/03/20 03:40:48;;;;;;;53.40;31.30;;;8.10;99.90;;;;;;5056338;28;20052;-70
2022/03/20 03:43:17;;;;;;;52.35;31.38;;;8.10;99.90;;;;;;5055964;28;20025;-70
2022/03/20 03:45:44;;;;;;;53.78;30.05;;;8.20;99.90;;;;;;5056235;28;20021;-70
2022/03/20 03:48:11;;;;;;;61.40;34.58;;;8.10;99.90;;;;;;5055850;28;20056;-71
2022/03/20 03:50:38;;;;;;;61.15;35.47;;;8.20;99.90;;;;;;5055894;28;20424;-71
2022/03/20 03:53:04;;;;;;;65.90;36.95;;;8.20;99.90;;;;;;5055861;28;20100;-70
2022/03/20 03:55:31;;;;;;;68.28;36.83;;;8.30;99.90;;;;;;5056012;28;20024;-70
2022/03/20 03:57:57;;;;;;;64.13;35.92;;;8.40;99.90;;;;;;5055735;28;20020;-70
2022/03/20 04:00:24;;;;;;;64.90;36.20;;;8.30;99.90;;;;;;5055685;28;20047;-70
2022/03/20 04:02:50;;;;;;;68.72;39.33;;;8.30;99.90;;;;;;5055698;28;20025;-70
2022/03/20 04:05:17;;;;;;;70.22;36.78;;;8.40;99.90;;;;;;5055385;28;20037;-70
2022/03/20 04:07:44;;;;;;;60.20;33.58;;;8.40;99.90;;;;;;5056057;28;20033;-70
2022/03/20 04:10:11;;;;;;;69.25;35.95;;;8.40;99.90;;;;;;5055526;28;20017;-71
2022/03/20 04:12:40;;;;;;;64.18;35.80;;;8.40;99.90;;;;;;5055958;28;20021;-70
2022/03/20 04:15:07;;;;;;;62.30;36.33;;;8.40;99.90;;;;;;5055420;28;20021;-71
2022/03/20 04:17:32;;;;;;;59.78;36.10;;;8.50;99.90;;;;;;5055661;28;20496;-70
2022/03/20 04:19:59;;;;;;;56.28;33.10;;;8.60;99.90;;;;;;5055637;28;20044;-70
2022/03/20 04:22:25;;;;;;;58.55;32.72;;;8.70;99.90;;;;;;5055785;28;20060;-70
2022/03/20 04:24:52;;;;;;;60.05;33.13;;;8.70;99.90;;;;;;5055218;28;20079;-70
2022/03/20 04:27:18;;;;;;;59.28;33.15;;;8.70;99.90;;;;;;5055136;28;20036;-70
2022/03/20 04:29:44;;;;;;;56.75;33.00;;;8.70;99.90;;;;;;5055152;28;20037;-70
2022/03/20 04:32:11;;;;;;;57.28;32.45;;;8.70;99.90;;;;;;5055103;28;20107;-71
2022/03/20 04:34:38;;;;;;;51.10;31.88;;;8.70;99.90;;;;;;5055084;28;20045;-70
2022/03/20 04:37:05;;;;;;;58.72;34.13;;;8.60;99.90;;;;;;5055029;28;20051;-70
2022/03/20 04:39:32;;;;;;;59.95;32.97;;;8.70;99.90;;;;;;5054598;28;20104;-70
2022/03/20 04:41:58;;;;;;;60.88;34.25;;;8.70;99.90;;;;;;5054924;28;20031;-70
2022/03/20 04:44:24;;;;;;;55.75;30.88;;;8.80;99.90;;;;;;5055168;28;20100;-70
2022/03/20 04:46:50;;;;;;;59.05;31.75;;;8.80;99.90;;;;;;5054738;28;20458;-70
2022/03/20 05:00:12;;;;;;;59.65;32.13;;;8.80;99.90;;;;;;5054888;28;20528;-71
2022/03/20 05:02:39;;;;;;;54.70;30.95;;;8.80;99.90;;;;;;5054502;28;20057;-71
2022/03/20 05:05:05;;;;;;;54.88;31.73;;;8.70;99.90;;;;;;5054503;28;20501;-70
2022/03/20 05:07:33;;;;;;;53.28;30.55;;;8.80;99.90;;;;;;5054673;28;20025;-71
2022/03/20 05:15:31;;;;;;;57.65;32.97;;;8.80;99.90;;;;;;5054305;28;20056;-70
2022/03/20 05:17:57;;;;;;;54.33;30.88;;;8.80;99.90;;;;;;5054465;28;20061;-70
2022/03/20 05:20:23;;;;;;;54.55;31.58;;;8.70;99.90;;;;;;5054139;28;20486;-69
2022/03/20 05:22:50;;;;;;;55.83;30.42;;;8.80;99.90;;;;;;5054152;28;20032;-70
2022/03/20 05:25:17;;;;;;;55.80;32.05;;;8.80;99.90;;;;;;5054060;28;20024;-71
2022/03/20 05:27:43;;;;;;;50.85;29.88;;;8.80;99.90;;;;;;5053909;28;20473;-70
2022/03/20 05:30:09;;;;;;;57.20;31.00;;;8.80;99.90;;;;;;5053952;28;20032;-70
2022/03/20 05:32:35;;;;;;;51.63;30.05;;;8.80;99.90;;;;;;5053808;28;20025;-71
2022/03/20 05:35:09;;;;;;;52.90;30.15;;;8.70;99.90;;;;;;5053865;28;20013;-70
2022/03/20 05:37:36;;;;;;;50.13;29.10;;;8.80;99.90;;;;;;5053827;28;20063;-71
2022/03/20 05:40:03;;;;;;;48.38;28.25;;;8.80;99.90;;;;;;5054091;28;20466;-70
2022/03/20 05:42:28;;;;;;;48.70;28.90;;;8.70;99.90;;;;;;5053748;28;20028;-70
2022/03/20 05:44:54;;;;;;;51.13;28.73;;;8.70;99.90;;;;;;5053763;28;20028;-70
2022/03/20 05:47:20;;;;;;;48.15;27.55;;;8.80;99.90;;;;;;5053930;28;20466;-70
2022/03/20 05:49:46;;;;;;;52.53;28.45;;;8.80;99.90;;;;;;5052844;28;20064;-71
2022/03/20 05:52:13;;;;;;;50.88;28.70;;;8.80;99.90;;;;;;5054160;28;20029;-70
2022/03/20 05:54:39;;;;;;;47.45;28.35;;;8.80;99.90;;;;;;5053530;28;20382;-70
2022/03/20 05:59:53;;;;;;;50.70;27.15;;;8.80;99.90;;;;;;5053277;28;20055;-70
2022/03/20 06:02:20;;;;;;;46.88;26.00;;;8.80;99.90;;;;;;5053521;28;20500;-70
2022/03/20 06:04:46;;;;;;;48.80;24.70;;;8.70;99.90;;;;;;5053574;28;20113;-70
2022/03/20 06:07:12;;;;;;;45.40;25.60;;;8.80;99.90;;;;;;5053368;28;20079;-71
2022/03/20 06:09:38;;;;;;;45.20;24.85;;;8.70;99.90;;;;;;5053386;28;20097;-70
2022/03/20 06:12:05;;;;;;;49.30;25.40;;;8.80;99.90;;;;;;5053604;28;20052;-70
2022/03/20 06:14:30;;;;;;;44.22;22.50;;;8.80;99.90;;;;;;5053846;28;20462;-70
2022/03/20 06:16:56;;;;;;;52.75;25.23;;;8.80;99.90;;;;;;5053274;28;20048;-69
2022/03/20 06:19:22;;;;;;;44.63;23.40;;;8.80;99.90;;;;;;5035409;28;20028;-70
2022/03/20 06:21:48;;;;;;;43.13;23.60;;;8.80;99.90;;;;;;5053190;28;20074;-70
2022/03/20 06:24:13;;;;;;;39.47;22.20;;;8.80;99.90;;;;;;5053187;28;20397;-70
2022/03/20 06:26:39;;;;;;;36.92;23.10;;;8.80;99.90;;;;;;5053015;28;20036;-70
2022/03/20 06:29:05;;;;;;;39.28;22.77;;;8.80;99.90;;;;;;5053119;28;20028;-70
2022/03/20 06:31:31;;;;;;;38.85;21.60;;;8.80;99.90;;;;;;5053401;28;20100;-70
2022/03/20 06:33:58;;;;;;;40.25;21.52;;;8.70;99.90;;;;;;5053413;28;20381;-70
2022/03/20 06:36:24;;;;;;;39.47;22.20;;;8.70;99.90;;;;;;5053116;28;20057;-70
2022/03/20 06:38:50;;;;;;;35.95;21.55;;;8.70;99.90;;;;;;5053045;28;20021;-70
2022/03/20 06:41:15;;;;;;;36.45;21.13;;;8.70;99.90;;;;;;5052962;28;20033;-70
2022/03/20 06:43:41;;;;;;;36.25;21.55;;;8.70;99.90;;;;;;5053515;28;20096;-70
2022/03/20 06:46:07;;;;;;;37.00;20.73;;;8.70;99.90;;;;;;5053257;28;20056;-70
2022/03/20 06:48:33;;;;;;;37.20;21.10;;;8.80;99.90;;;;;;5052868;28;20087;-70
2022/03/20 06:50:59;;;;;;;35.20;19.88;;;8.80;99.90;;;;;;5053170;28;20067;-70
2022/03/20 06:53:25;;;;;;;34.10;18.85;;;8.80;99.90;;;;;;5052904;28;20071;-70
2022/03/20 06:55:51;;;;;;;31.55;17.38;;;8.80;99.90;;;;;;5052816;28;20021;-69
2022/03/20 06:58:17;;;;;;;29.75;16.95;;;8.80;99.90;;;;;;5053122;28;20025;-70
2022/03/20 07:00:44;;;;;;;29.30;16.92;;;8.80;99.90;;;;;;5053387;28;20036;-69
2022/03/20 07:03:10;;;;;;;32.13;17.40;;;8.80;99.90;;;;;;5056780;28;20021;-70
2022/03/20 07:05:36;;;;;;;29.30;16.33;;;8.80;99.90;;;;;;5056740;28;20429;-70
2022/03/20 07:08:04;;;;;;;30.15;18.33;;;8.90;99.90;;;;;;5056617;28;20102;-70
2022/03/20 07:10:29;;;;;;;26.77;15.13;;;8.90;99.90;;;;;;5056580;28;20024;-70
2022/03/20 07:13:48;;;;;;;27.63;15.80;;;8.90;99.90;;;;;;5056411;28;20029;-70
2022/03/20 07:15:46;;;;;;;28.20;16.52;;;9.00;99.90;;;;;;5056268;28;20025;-70
2022/03/20 07:18:12;;;;;;;;;;;9.10;99.90;;;;;;5057548;28;20029;-70
2022/03/20 07:20:39;;;;;;;27.52;14.98;;;9.20;99.90;;;;;;5056502;28;20431;-70
2022/03/20 07:23:09;;;;;;;25.80;15.80;;;9.20;99.90;;;;;;5056415;28;20025;-70
2022/03/20 07:31:04;;;;;;;32.33;17.58;;;9.30;99.90;;;;;;5056298;28;20024;-70
2022/03/20 07:33:29;;;;;;;26.20;14.15;;;9.30;99.90;;;;;;5056231;28;20029;-70
2022/03/20 07:35:55;;;;;;;31.05;15.73;;;9.40;99.90;;;;;;5056149;28;20021;-71
2022/03/20 07:38:21;;;;;;;29.63;16.92;;;9.40;99.90;;;;;;5056669;28;20064;-70
2022/03/20 07:40:46;;;;;;;26.80;15.57;;;9.50;99.90;;;;;;5056096;28;20072;-71
2022/03/20 07:43:12;;;;;;;26.10;15.32;;;9.70;99.90;;;;;;5056074;28;20033;-70
2022/03/20 07:45:38;;;;;;;25.60;15.63;;;9.80;99.90;;;;;;5056055;28;20021;-70
2022/03/20 07:48:04;;;;;;;28.23;15.80;;;9.80;99.90;;;;;;5038027;28;20032;-70
2022/03/20 07:50:29;;;;;;;25.52;14.88;;;9.90;99.90;;;;;;5038019;28;20025;-70
2022/03/20 07:52:59;;;;;;;24.92;15.30;;;9.90;99.90;;;;;;5055908;28;20436;-71
2022/03/20 07:55:28;;;;;;;28.07;15.77;;;10.00;99.90;;;;;;5055814;28;20552;-70
2022/03/20 07:57:54;;;;;;;29.80;16.00;;;10.00;99.90;;;;;;5055759;28;20747;-71
2022/03/20 08:00:20;;;;;;;31.05;15.40;;;10.10;99.90;;;;;;5055788;28;20077;-70
2022/03/20 08:02:46;;;;;;;26.45;15.25;;;10.20;99.90;;;;;;5055647;28;20512;-70
2022/03/20 08:05:12;;;;;;;27.08;16.23;;;10.30;99.90;;;;;;5055460;28;20040;-70
2022/03/20 08:07:38;;;;;;;26.10;14.63;;;10.30;99.90;;;;;;5055818;28;20021;-71
2022/03/20 08:10:12;;;;;;;27.10;15.15;;;10.30;99.90;;;;;;5055527;28;20021;-70
2022/03/20 08:12:38;;;;;;;25.80;15.57;;;10.50;99.90;;;;;;5054943;28;20043;-70
2022/03/20 08:15:06;;;;;;;25.75;15.27;;;10.70;99.90;;;;;;5055985;28;20020;-70
2022/03/20 08:17:40;;;;;;;24.15;15.00;;;10.90;99.90;;;;;;5055959;28;20032;-70
2022/03/20 08:20:07;;;;;;;25.58;15.38;;;11.10;99.90;;;;;;5037252;28;20121;-70
2022/03/20 08:22:33;;;;;;;26.42;14.77;;;11.20;99.90;;;;;;5055571;28;20051;-70
2022/03/20 08:24:58;;;;;;;22.70;13.63;;;11.30;99.90;;;;;;5055288;28;20448;-70
2022/03/20 08:27:24;;;;;;;24.42;13.98;;;11.40;99.90;;;;;;5055174;28;20027;-70
2022/03/20 08:29:50;;;;;;;25.40;14.70;;;11.60;99.90;;;;;;5055181;28;20031;-70
2022/03/20 08:32:16;;;;;;;24.02;13.70;;;11.70;99.90;;;;;;5055155;28;20436;-70
2022/03/20 08:34:41;;;;;;;21.88;14.40;;;11.80;99.90;;;;;;5055131;28;20390;-71
2022/03/20 08:37:07;;;;;;;20.83;12.77;;;12.10;99.90;;;;;;5055333;28;20032;-71
2022/03/20 08:39:33;;;;;;;26.90;13.50;;;12.10;99.90;;;;;;5037108;28;20128;-70
2022/03/20 08:41:58;;;;;;;22.35;13.70;;;12.20;99.90;;;;;;5054982;28;20021;-70
2022/03/20 08:44:26;;;;;;;20.33;12.77;;;12.50;99.90;;;;;;5054930;28;20035;-71
2022/03/20 08:46:52;;;;;;;29.02;17.23;;;12.40;99.90;;;;;;5054765;28;20055;-71
2022/03/20 08:49:19;;;;;;;22.95;13.93;;;12.60;99.90;;;;;;5054808;28;20021;-70
2022/03/20 08:51:45;;;;;;;24.58;14.82;;;12.70;99.90;;;;;;5036867;28;20398;-71
2022/03/20 08:54:11;;;;;;;24.48;13.88;;;12.90;99.90;;;;;;5054693;28;20025;-70
2022/03/20 08:56:38;;;;;;;20.25;13.05;;;13.00;99.90;;;;;;5054628;28;20504;-70
2022/03/20 08:59:03;;;;;;;22.42;12.80;;;13.30;99.90;;;;;;5054580;28;20485;-71
2022/03/20 09:01:30;;;;;;;20.75;13.68;;;13.40;99.90;;;;;;5054537;28;20025;-71
2022/03/20 09:03:56;;;;;;;21.50;13.55;;;13.40;99.90;;;;;;5054534;28;20507;-70
2022/03/20 09:06:22;;;;;;;19.67;12.30;;;13.40;99.90;;;;;;5054297;28;20097;-70
2022/03/20 09:08:49;;;;;;;21.90;11.80;;;13.40;99.90;;;;;;5054361;28;20056;-70
2022/03/20 09:11:16;;;;;;;21.27;11.98;;;13.10;99.90;;;;;;5054407;28;20035;-70
2022/03/20 09:13:41;;;;;;;21.42;13.45;;;12.90;99.90;;;;;;5054342;28;20020;-71
2022/03/20 09:19:04;;;;;;;22.05;12.68;;;13.10;99.90;;;;;;5054635;28;20039;-70
2022/03/20 09:21:36;;;;;;;23.45;13.50;;;13.20;99.90;;;;;;5054310;28;20033;-70
2022/03/20 09:24:03;;;;;;;21.23;12.52;;;13.60;99.90;;;;;;5054004;28;20107;-70
2022/03/20 09:26:29;;;;;;;19.65;12.65;;;13.60;99.90;;;;;;5054066;28;20024;-70
2022/03/20 09:28:55;;;;;;;22.65;12.57;;;13.70;99.90;;;;;;5053955;28;20036;-71
2022/03/20 09:31:20;;;;;;;21.95;14.20;;;13.90;99.90;;;;;;5053997;28;20389;-70
2022/03/20 09:33:46;;;;;;;24.42;13.13;;;14.20;99.90;;;;;;5054289;28;20021;-71
2022/03/20 09:36:12;;;;;;;25.67;13.30;;;14.70;99.90;;;;;;5053942;28;20496;-70
2022/03/20 09:38:38;;;;;;;20.30;12.55;;;14.80;99.60;;;;;;5054455;28;20033;-71
2022/03/20 09:41:07;;;;;;;21.13;13.27;;;14.80;99.70;;;;;;5054113;28;20025;-71
2022/03/20 09:43:34;;;;;;;20.85;12.63;;;15.10;99.50;;;;;;5054115;28;20017;-70
2022/03/20 09:46:00;;;;;;;21.67;13.57;;;15.30;99.40;;;;;;5054272;28;20028;-70
2022/03/20 09:48:30;;;;;;;23.20;12.93;;;15.50;98.60;;;;;;5053594;28;20029;-71
2022/03/20 09:50:58;;;;;;;21.83;13.48;;;15.90;98.30;;;;;;5053685;28;20040;-70
2022/03/20 09:53:25;;;;;;;20.20;12.85;;;16.20;97.70;;;;;;5053597;28;20466;-71
2022/03/20 09:55:51;;;;;;;19.95;13.00;;;16.30;97.20;;;;;;5053513;28;20021;-71
2022/03/20 09:58:17;;;;;;;22.73;13.60;;;16.80;96.50;;;;;;5053807;28;20025;-70
2022/03/20 10:00:42;;;;;;;35.17;16.40;;;17.30;96.10;;;;;;5053449;28;20393;-70
2022/03/20 10:03:19;;;;;;;25.33;14.60;;;18.20;95.00;;;;;;5053712;28;20470;-71
2022/03/20 10:06:03;;;;;;;20.15;13.77;;;18.70;93.90;;;;;;5053579;28;20049;-71
2022/03/20 10:08:28;;;;;;;17.83;12.98;;;19.10;92.40;;;;;;5053228;28;20032;-71
2022/03/20 10:11:15;;;;;;;20.27;14.48;;;19.50;91.40;;;;;;5053415;28;20028;-71
2022/03/20 10:14:20;;;;;;;20.50;13.10;;;19.80;90.30;;;;;;5053545;28;20028;-71
2022/03/20 10:17:04;;;;;;;18.85;13.32;;;20.00;87.90;;;;;;5053486;28;20420;-71
2022/03/20 10:19:31;;;;;;;21.30;13.68;;;20.20;86.50;;;;;;5053441;28;20032;-71
2022/03/20 10:21:58;;;;;;;20.98;14.25;;;20.50;85.10;;;;;;5053136;28;20017;-72
2022/03/20 10:24:26;;;;;;;21.20;14.07;;;20.50;83.80;;;;;;5053124;28;20087;-71
2022/03/20 10:27:13;;;;;;;18.92;12.73;;;20.80;81.70;;;;;;5053028;28;20027;-70
2022/03/20 10:29:48;;;;;;;21.73;14.52;;;21.00;80.20;;;;;;5053507;28;20409;-71
2022/03/20 10:32:14;;;;;;;20.70;14.35;;;21.00;78.40;;;;;;5053125;28;20028;-70
2022/03/20 10:34:49;;;;;;;21.92;13.77;;;20.70;78.90;;;;;;5053119;28;20029;-71
2022/03/20 10:37:17;;;;;;;19.73;13.57;;;20.50;79.30;;;;;;5059194;28;20074;-70
2022/03/20 10:39:42;;;;;;;21.42;13.70;;;20.30;79.10;;;;;;5059613;28;20029;-71
2022/03/20 10:42:16;;;;;;;19.63;14.30;;;20.30;79.40;;;;;;5059988;28;20108;-70
2022/03/20 10:44:42;;;;;;;19.05;13.23;;;21.10;77.90;;;;;;5060261;28;20478;-71
2022/03/20 10:47:12;;;;;;;19.08;13.95;;;21.60;77.10;;;;;;5059806;28;20088;-71
2022/03/20 10:49:42;;;;;;;20.13;13.40;;;23.50;73.80;;;;;;5059912;28;20049;-71
2022/03/20 10:52:11;;;;;;;18.05;13.75;;;24.70;70.60;;;;;;5059922;28;20025;-71
2022/03/20 10:54:44;;;;;;;20.15;13.32;;;25.30;66.50;;;;;;5059913;28;20485;-71
2022/03/20 10:57:12;;;;;;;18.00;13.80;;;26.00;64.10;;;;;;5060065;28;20036;-71
2022/03/20 10:59:39;;;;;;;17.02;12.77;;;25.90;61.60;;;;;;5059507;28;20017;-71
2022/03/20 11:02:08;;;;;;;17.17;13.18;;;25.60;61.30;;;;;;5059479;28;20446;-71
2022/03/20 11:04:34;;;;;;;16.90;13.25;;;24.60;61.50;;;;;;5059448;28;20024;-71
2022/03/20 11:07:06;;;;;;;17.08;12.90;;;23.90;61.90;;;;;;5058911;28;20056;-71
2022/03/20 11:09:32;;;;;;;21.67;14.68;;;23.70;63.10;;;;;;5059799;28;20068;-70
2022/03/20 11:11:59;;;;;;;23.00;14.73;;;22.90;63.50;;;;;;5059443;28;20481;-71
2022/03/20 11:14:27;;;;;;;19.50;13.98;;;22.50;63.70;;;;;;5059421;28;20028;-70
2022/03/20 11:17:06;;;;;;;23.05;14.65;;;21.70;64.90;;;;;;5059401;28;20025;-71
2022/03/20 11:19:34;;;;;;;19.93;14.30;;;21.30;66.70;;;;;;5060023;28;20021;-71
2022/03/20 11:22:03;;;;;;;21.98;14.73;;;21.70;66.90;;;;;;5059326;28;20275;-71
2022/03/20 11:24:29;;;;;;;22.40;14.85;;;22.70;64.60;;;;;;5059379;28;20100;-71
2022/03/20 11:27:00;;;;;;;19.92;15.57;;;23.90;62.70;;;;;;5059223;28;20175;-71
2022/03/20 11:29:29;;;;;;;19.95;14.27;;;24.40;61.30;;;;;;5059350;28;20044;-71
2022/03/20 11:31:55;;;;;;;18.65;13.77;;;23.80;61.80;;;;;;5059264;28;20024;-71
2022/03/20 11:34:22;;;;;;;20.30;15.73;;;22.90;63.40;;;;;;5059823;28;20025;-71
2022/03/20 11:37:08;;;;;;;20.70;15.80;;;22.40;65.10;;;;;;5059245;28;20025;-70
2022/03/20 11:39:39;;;;;;;23.13;15.95;;;21.70;65.20;;;;;;5059498;28;20021;-71
2022/03/20 11:42:32;;;;;;;21.90;15.98;;;21.20;67.40;;;;;;5059490;28;20028;-71
2022/03/20 11:45:07;;;;;;;21.90;15.02;;;20.50;69.20;;;;;;5056709;28;20029;-72
2022/03/20 11:47:38;;;;;;;22.40;15.68;;;19.90;70.70;;;;;;5057787;28;20539;-71
2022/03/20 11:50:24;;;;;;;26.08;16.35;;;19.60;71.10;;;;;;5056044;28;20066;-70
2022/03/20 11:52:54;;;;;;;21.95;15.32;;;19.20;72.20;;;;;;5055946;28;20096;-71
2022/03/20 11:55:33;;;;;;;22.10;14.98;;;18.80;73.30;;;;;;5056165;28;20465;-71
2022/03/20 11:58:05;;;;;;;21.92;15.02;;;18.60;75.20;;;;;;5056100;28;20021;-71
2022/03/20 12:00:34;;;;;;;22.92;15.00;;;18.30;75.50;;;;;;5056019;28;20044;-71
2022/03/20 12:03:08;;;;;;;21.42;15.60;;;18.20;75.50;;;;;;5055691;28;20032;-71
2022/03/20 12:06:06;;;;;;;27.20;17.23;;;18.30;75.90;;;;;;5055622;28;20493;-71
2022/03/20 12:09:07;;;;;;;26.73;16.10;;;18.60;75.70;;;;;;5056024;28;20021;-71
2022/03/20 12:11:56;;;;;;;24.05;16.17;;;19.00;75.40;;;;;;5052302;28;20087;-71
2022/03/20 12:14:36;;;;;;;24.52;16.38;;;19.30;75.80;;;;;;5055848;28;20021;-71
2022/03/20 12:17:03;;;;;;;22.27;15.35;;;19.40;75.00;;;;;;5055821;28;20108;-72
2022/03/20 12:19:44;;;;;;;24.63;16.35;;;19.20;75.20;;;;;;5055364;28;20551;-70
2022/03/20 12:22:18;;;;;;;23.15;16.08;;;19.30;75.60;;;;;;5055415;28;20024;-71
2022/03/20 12:24:57;;;;;;;23.95;15.57;;;19.30;75.40;;;;;;5055905;28;20469;-71
2022/03/20 12:27:23;;;;;;;24.08;16.10;;;19.10;75.50;;;;;;5037118;28;20124;-71
2022/03/20 12:30:02;;;;;;;25.27;16.42;;;18.80;76.90;;;;;;5055232;28;20052;-71
2022/03/20 12:32:48;;;;;;;22.95;15.90;;;18.70;76.90;;;;;;5055764;28;20075;-71
2022/03/20 12:35:23;;;;;;;26.13;16.95;;;18.90;78.00;;;;;;5055013;28;20367;-71
2022/03/20 12:37:50;;;;;;;23.98;16.73;;;19.00;78.00;;;;;;5055402;28;20021;-71
2022/03/20 12:40:25;;;;;;;27.10;17.85;;;19.00;77.20;;;;;;5055306;28;20055;-71
2022/03/20 12:42:58;;;;;;;25.13;17.27;;;19.40;77.20;;;;;;5037092;28;20036;-72
2022/03/20 12:45:26;;;;;;;26.27;17.73;;;19.90;76.40;;;;;;5055212;28;20033;-71
2022/03/20 12:47:54;;;;;;;22.40;15.98;;;20.30;76.00;;;;;;5054826;28;20029;-71
2022/03/20 12:50:33;;;;;;;23.40;17.35;;;20.70;75.70;;;;;;5054841;28;20087;-71
2022/03/20 12:53:17;;;;;;;23.25;17.33;;;20.90;74.90;;;;;;5054849;28;20025;-70
2022/03/20 12:55:54;;;;;;;23.58;17.25;;;21.30;74.60;;;;;;5055267;28;20028;-70
2022/03/20 12:58:20;;;;;;;25.73;17.30;;;21.50;74.80;;;;;;5054263;28;20025;-71
2022/03/20 13:00:46;;;;;;;27.35;17.80;;;21.40;73.00;;;;;;5054563;28;20021;-71
2022/03/20 13:03:14;;;;;;;25.50;17.05;;;21.30;72.80;;;;;;5054567;28;20033;-71
2022/03/20 13:05:48;;;;;;;25.75;18.65;;;21.30;73.10;;;;;;5056271;28;20090;-71
2022/03/20 13:08:26;;;;;;;25.10;18.10;;;21.00;74.00;;;;;;5054384;28;20095;-71
2022/03/20 13:10:55;;;;;;;24.83;17.35;;;21.20;74.40;;;;;;5054762;28;20025;-71